Gardiner, MT (59030)

10:26 PM MST on February 27, 2017 (GMT -0700)
Gardiner, MT | | Change Station

Elev 5325 ft 45.04 °N, 110.71 °W | Updated 42 seconds ago

Overcast
Overcast
20.1 °F
Feels Like 20 °F
N
1.4
Wind Variable Wind from ESE
Gusts 3.0 mph

Today
High -- | Low -- °F
--% Chance of Precip.
Yesterday
High -- | Low -- °F
Precip. -- in
Pressure 29.64 in
Visibility 2.5 miles
Clouds Few 300 ft
Scattered Clouds 1000 ft
Mostly Cloudy 4900 ft
Windchill 20 °F
Dew Point 9 °F
Humidity 61%
Rainfall 0.00 in
Snow Depth Not available.
7:03 AM 6:08 PM
Waxing Crescent, 3% visible
METAR KWYS 280515Z AUTO 25003KT 2 1/2SM -SN FEW003 SCT010 BKN049 M10/M13 A2964 RMK AO2
Pressure 29.64 in
Visibility 2.5 miles
Clouds Few 300 ft
Scattered Clouds 1000 ft
Mostly Cloudy 4900 ft
Windchill 20 °F
Dew Point 9 °F
Humidity 61%
Rainfall 0.00 in
Snow Depth Not available.
7:03 AM 6:08 PM
Waxing Crescent, 3% visible
METAR KWYS 280515Z AUTO 25003KT 2 1/2SM -SN FEW003 SCT010 BKN049 M10/M13 A2964 RMK AO2

Get Your Daily Forecast Email!

Thanks for signing up!

Be on the lookout for a verification email in your inbox.

You'll start receiving the daily forecast at 8 AM.

×

10-Day Weather Forecast

Almanac

Astronomy

Feb. 27, 2017 Rise Set
Actual Time
Civil Twilight
Nautical Twilight
Astronomical Twilight
Moon
Length of Visible Light
Length of Day
Tomorrow will be .
, % of the Moon is Illuminated

Today's Extremes

State Highs State Lows

Community

WunderPhotos

Upload Photos

1,962,540 photos uploaded!

WunderBlog® & News

Nearby

Air Quality

  Air Quality AQ Index Pollutant
Not available.

Snow Depth

Station Depth Elevation

Earthquake Activity

City Distance Mag. Time & Date
Minimum magnitude displayed is 2.5.

Coastal Water Temperatures

Place Temperature

Stations

Nearby Weather Stations

Station Location Temp. Windchill Dew Point Humidity Wind Precip. Elev Updated Type
                   

Watches & Warnings

There are currently no watches in effect.